CVA643 NZPP-NZAA
Flight info
| Callsign | CVA643 |
|---|---|
| Flight time | 1h 7m |
| Altitude | 21000 |
| Route | GUGAK6 PP H482 KAPTI Y273 PEPPE PEPPE3E |
| Aircraft | SF34/M-SDFGR/S |
Departure
| Time | 2026-04-15 11:02 |
|---|---|
| Airport | Paraparaumu Airport (NZPP) |
Arrival
| Time | 2026-04-15 12:10 |
|---|---|
| Airport | Auckland International Airport (NZAA) |
| Time | Latitude | Longitude | Altitude | Speed | Heading |
|---|---|---|---|---|---|
| 2026-04-15 10:36 | -40.90140 | 174.98505 | 24 ft | 0 kts | 21° |
| 2026-04-15 10:57 | -40.90136 | 174.98511 | 23 ft | 1 kts | 63° |
| 2026-04-15 10:57 | -40.90137 | 174.98573 | 22 ft | 7 kts | 84° |
| 2026-04-15 10:58 | -40.90139 | 174.98662 | 22 ft | 12 kts | 127° |
| 2026-04-15 10:58 | -40.90227 | 174.98698 | 22 ft | 18 kts | 184° |
| 2026-04-15 10:58 | -40.90359 | 174.98695 | 22 ft | 20 kts | 180° |
| 2026-04-15 10:58 | -40.90448 | 174.98699 | 22 ft | 19 kts | 184° |
| 2026-04-15 10:59 | -40.90674 | 174.98697 | 23 ft | 27 kts | 181° |
| 2026-04-15 10:59 | -40.90810 | 174.98695 | 22 ft | 22 kts | 176° |
| 2026-04-15 10:59 | -40.90990 | 174.98697 | 23 ft | 17 kts | 182° |
| 2026-04-15 10:59 | -40.91086 | 174.98735 | 23 ft | 13 kts | 131° |
| 2026-04-15 11:00 | -40.91050 | 174.98797 | 22 ft | 13 kts | 345° |
| 2026-04-15 11:00 | -40.91015 | 174.98788 | 22 ft | 0 kts | 1° |
| 2026-04-15 11:01 | -40.90817 | 174.98786 | 24 ft | 62 kts | 0° |
| 2026-04-15 11:01 | -40.89908 | 174.98783 | 114 ft | 126 kts | 360° |
| 2026-04-15 11:01 | -40.88980 | 174.98798 | 536 ft | 143 kts | 352° |
| 2026-04-15 11:02 | -40.88237 | 174.98759 | 517 ft | 173 kts | 353° |
| 2026-04-15 11:02 | -40.86981 | 174.98782 | 942 ft | 175 kts | 354° |
| 2026-04-15 11:02 | -40.85816 | 174.98811 | 1674 ft | 166 kts | 350° |
| 2026-04-15 11:02 | -40.84699 | 174.98794 | 2524 ft | 151 kts | 348° |
| 2026-04-15 11:03 | -40.83729 | 174.98803 | 3543 ft | 135 kts | 345° |
| 2026-04-15 11:03 | -40.82713 | 174.98780 | 4022 ft | 153 kts | 347° |
| 2026-04-15 11:03 | -40.81254 | 174.98791 | 4724 ft | 168 kts | 347° |
| 2026-04-15 11:03 | -40.80458 | 174.98795 | 5156 ft | 171 kts | 348° |
| 2026-04-15 11:04 | -40.79274 | 174.98802 | 5775 ft | 174 kts | 346° |
| 2026-04-15 11:04 | -40.78050 | 174.98797 | 6373 ft | 178 kts | 347° |
| 2026-04-15 11:04 | -40.76803 | 174.98810 | 6988 ft | 181 kts | 347° |
| 2026-04-15 11:04 | -40.75539 | 174.98808 | 7611 ft | 183 kts | 347° |
| 2026-04-15 11:05 | -40.74251 | 174.98807 | 8210 ft | 187 kts | 347° |
| 2026-04-15 11:05 | -40.72921 | 174.98810 | 8669 ft | 199 kts | 348° |
| 2026-04-15 11:05 | -40.71500 | 174.99007 | 9091 ft | 206 kts | 353° |
| 2026-04-15 11:05 | -40.70070 | 174.99086 | 9528 ft | 206 kts | 349° |
| 2026-04-15 11:06 | -40.68621 | 174.99186 | 9944 ft | 210 kts | 353° |
| 2026-04-15 11:06 | -40.67162 | 174.99334 | 10365 ft | 211 kts | 352° |
| 2026-04-15 11:06 | -40.65707 | 174.99446 | 10773 ft | 213 kts | 352° |
| 2026-04-15 11:06 | -40.64228 | 174.99573 | 11197 ft | 214 kts | 352° |
| 2026-04-15 11:07 | -40.62733 | 174.99688 | 11606 ft | 213 kts | 349° |
| 2026-04-15 11:07 | -40.61255 | 174.99620 | 12012 ft | 214 kts | 347° |
| 2026-04-15 11:07 | -40.59755 | 174.99616 | 12437 ft | 217 kts | 349° |
| 2026-04-15 11:07 | -40.58241 | 174.99607 | 12855 ft | 218 kts | 348° |
| 2026-04-15 11:08 | -40.56722 | 174.99572 | 13290 ft | 220 kts | 348° |
| 2026-04-15 11:08 | -40.55185 | 174.99558 | 13693 ft | 221 kts | 349° |
| 2026-04-15 11:08 | -40.53665 | 174.99539 | 14087 ft | 222 kts | 348° |
| 2026-04-15 11:08 | -40.52116 | 174.99515 | 14485 ft | 223 kts | 348° |
| 2026-04-15 11:09 | -40.50563 | 174.99497 | 14868 ft | 224 kts | 348° |
| 2026-04-15 11:09 | -40.48999 | 174.99476 | 15242 ft | 225 kts | 348° |
| 2026-04-15 11:09 | -40.47435 | 174.99453 | 15616 ft | 226 kts | 348° |
| 2026-04-15 11:09 | -40.45861 | 174.99435 | 15974 ft | 227 kts | 348° |
| 2026-04-15 11:10 | -40.44278 | 174.99412 | 16343 ft | 229 kts | 348° |
| 2026-04-15 11:10 | -40.42692 | 174.99393 | 16842 ft | 228 kts | 348° |
| 2026-04-15 11:10 | -40.41118 | 174.99370 | 17285 ft | 230 kts | 347° |
| 2026-04-15 11:10 | -40.39515 | 174.99349 | 17725 ft | 231 kts | 347° |
| 2026-04-15 11:11 | -40.37907 | 174.99328 | 18124 ft | 232 kts | 347° |
| 2026-04-15 11:11 | -40.36290 | 174.99308 | 18392 ft | 233 kts | 347° |
| 2026-04-15 11:11 | -40.34662 | 174.99285 | 18611 ft | 234 kts | 347° |
| 2026-04-15 11:11 | -40.33034 | 174.99264 | 18818 ft | 235 kts | 347° |
| 2026-04-15 11:12 | -40.31393 | 174.99243 | 19011 ft | 236 kts | 347° |
| 2026-04-15 11:12 | -40.29750 | 174.99221 | 19205 ft | 237 kts | 347° |
| 2026-04-15 11:12 | -40.28122 | 174.99200 | 19392 ft | 237 kts | 347° |
| 2026-04-15 11:12 | -40.26470 | 174.99179 | 19576 ft | 238 kts | 346° |
| 2026-04-15 11:13 | -40.24796 | 174.99158 | 19683 ft | 245 kts | 347° |
| 2026-04-15 11:13 | -40.23150 | 174.99135 | 19763 ft | 247 kts | 347° |
| 2026-04-15 11:13 | -40.21456 | 174.99103 | 19914 ft | 248 kts | 347° |
| 2026-04-15 11:13 | -40.19730 | 174.99089 | 20060 ft | 248 kts | 347° |
| 2026-04-15 11:14 | -40.18000 | 174.99065 | 20209 ft | 249 kts | 347° |
| 2026-04-15 11:14 | -40.16270 | 174.99045 | 20341 ft | 250 kts | 347° |
| 2026-04-15 11:14 | -40.14527 | 174.99035 | 20466 ft | 250 kts | 347° |
| 2026-04-15 11:14 | -40.12792 | 174.99001 | 20605 ft | 250 kts | 347° |
| 2026-04-15 11:15 | -40.11072 | 174.98981 | 20738 ft | 251 kts | 347° |
| 2026-04-15 11:15 | -40.09326 | 174.98960 | 20874 ft | 252 kts | 347° |
| 2026-04-15 11:15 | -40.07555 | 174.98931 | 20822 ft | 258 kts | 347° |
| 2026-04-15 11:15 | -40.05746 | 174.98915 | 20844 ft | 259 kts | 347° |
| 2026-04-15 11:16 | -40.03939 | 174.98891 | 20848 ft | 260 kts | 347° |
| 2026-04-15 11:16 | -40.02126 | 174.98865 | 20848 ft | 262 kts | 347° |
| 2026-04-15 11:16 | -40.00302 | 174.98845 | 20858 ft | 262 kts | 347° |
| 2026-04-15 11:16 | -39.98478 | 174.98820 | 20859 ft | 262 kts | 347° |
| 2026-04-15 11:17 | -39.96681 | 174.98798 | 20858 ft | 262 kts | 347° |
| 2026-04-15 11:17 | -39.94855 | 174.98772 | 20859 ft | 262 kts | 347° |
| 2026-04-15 11:17 | -39.93028 | 174.98754 | 20860 ft | 262 kts | 347° |
| 2026-04-15 11:17 | -39.91205 | 174.98727 | 20856 ft | 262 kts | 347° |
| 2026-04-15 11:18 | -39.89384 | 174.98706 | 20855 ft | 262 kts | 348° |
| 2026-04-15 11:18 | -39.87565 | 174.98699 | 20855 ft | 260 kts | 346° |
| 2026-04-15 11:18 | -39.85753 | 174.98629 | 20857 ft | 262 kts | 347° |
| 2026-04-15 11:18 | -39.83947 | 174.98642 | 20857 ft | 263 kts | 348° |
| 2026-04-15 11:19 | -39.82123 | 174.98619 | 20869 ft | 262 kts | 347° |
| 2026-04-15 11:19 | -39.80306 | 174.98578 | 20870 ft | 261 kts | 347° |
| 2026-04-15 11:19 | -39.78478 | 174.98564 | 20870 ft | 262 kts | 347° |
| 2026-04-15 11:19 | -39.76657 | 174.98543 | 20870 ft | 261 kts | 347° |
| 2026-04-15 11:20 | -39.74843 | 174.98508 | 20870 ft | 261 kts | 347° |
| 2026-04-15 11:20 | -39.73030 | 174.98499 | 20877 ft | 261 kts | 347° |
| 2026-04-15 11:20 | -39.71214 | 174.98476 | 20877 ft | 261 kts | 347° |
| 2026-04-15 11:20 | -39.69398 | 174.98446 | 20855 ft | 262 kts | 347° |
| 2026-04-15 11:21 | -39.67590 | 174.98426 | 20879 ft | 265 kts | 347° |
| 2026-04-15 11:21 | -39.65742 | 174.98406 | 20879 ft | 265 kts | 348° |
| 2026-04-15 11:21 | -39.63902 | 174.98379 | 20891 ft | 263 kts | 347° |
| 2026-04-15 11:21 | -39.62072 | 174.98354 | 20890 ft | 263 kts | 347° |
| 2026-04-15 11:22 | -39.60247 | 174.98336 | 20891 ft | 263 kts | 347° |
| 2026-04-15 11:22 | -39.58422 | 174.98310 | 20889 ft | 262 kts | 347° |
| 2026-04-15 11:22 | -39.56599 | 174.98293 | 20886 ft | 261 kts | 348° |
| 2026-04-15 11:22 | -39.54779 | 174.98290 | 20904 ft | 262 kts | 347° |
| 2026-04-15 11:23 | -39.52984 | 174.98243 | 20899 ft | 261 kts | 346° |
| 2026-04-15 11:23 | -39.51164 | 174.98196 | 20896 ft | 262 kts | 348° |
| 2026-04-15 11:23 | -39.49341 | 174.98205 | 20897 ft | 262 kts | 348° |
| 2026-04-15 11:23 | -39.47521 | 174.98179 | 20900 ft | 261 kts | 347° |
| 2026-04-15 11:24 | -39.45699 | 174.98148 | 20908 ft | 262 kts | 347° |
| 2026-04-15 11:24 | -39.43874 | 174.98138 | 20902 ft | 262 kts | 347° |
| 2026-04-15 11:24 | -39.42052 | 174.98112 | 20910 ft | 262 kts | 347° |
| 2026-04-15 11:24 | -39.40233 | 174.98094 | 20908 ft | 260 kts | 347° |
| 2026-04-15 11:25 | -39.38452 | 174.98069 | 20907 ft | 260 kts | 347° |
| 2026-04-15 11:25 | -39.36646 | 174.98044 | 20909 ft | 259 kts | 347° |
| 2026-04-15 11:25 | -39.34850 | 174.98027 | 20916 ft | 258 kts | 347° |
| 2026-04-15 11:25 | -39.33059 | 174.97998 | 20907 ft | 256 kts | 347° |
| 2026-04-15 11:26 | -39.31278 | 174.97978 | 20932 ft | 255 kts | 347° |
| 2026-04-15 11:26 | -39.29501 | 174.97958 | 20927 ft | 256 kts | 347° |
| 2026-04-15 11:26 | -39.27715 | 174.97942 | 20933 ft | 257 kts | 347° |
| 2026-04-15 11:26 | -39.25924 | 174.97923 | 20934 ft | 257 kts | 347° |
| 2026-04-15 11:27 | -39.24133 | 174.97884 | 20910 ft | 259 kts | 347° |
| 2026-04-15 11:27 | -39.22354 | 174.97876 | 20923 ft | 258 kts | 347° |
| 2026-04-15 11:27 | -39.20560 | 174.97848 | 20922 ft | 258 kts | 347° |
| 2026-04-15 11:27 | -39.18769 | 174.97827 | 20933 ft | 258 kts | 347° |
| 2026-04-15 11:28 | -39.16969 | 174.97810 | 20929 ft | 258 kts | 347° |
| 2026-04-15 11:28 | -39.15172 | 174.97779 | 20933 ft | 258 kts | 347° |
| 2026-04-15 11:28 | -39.13374 | 174.97761 | 20934 ft | 259 kts | 347° |
| 2026-04-15 11:28 | -39.11574 | 174.97743 | 20932 ft | 258 kts | 347° |
| 2026-04-15 11:29 | -39.09782 | 174.97714 | 20938 ft | 258 kts | 347° |
| 2026-04-15 11:29 | -39.07981 | 174.97700 | 20938 ft | 259 kts | 347° |
| 2026-04-15 11:29 | -39.06209 | 174.97678 | 20938 ft | 259 kts | 347° |
| 2026-04-15 11:29 | -39.04409 | 174.97654 | 20938 ft | 259 kts | 347° |
| 2026-04-15 11:30 | -39.02606 | 174.97635 | 20936 ft | 259 kts | 347° |
| 2026-04-15 11:30 | -39.00809 | 174.97614 | 20929 ft | 258 kts | 347° |
| 2026-04-15 11:30 | -38.99012 | 174.97591 | 20937 ft | 258 kts | 347° |
| 2026-04-15 11:30 | -38.97212 | 174.97571 | 20937 ft | 259 kts | 347° |
| 2026-04-15 11:31 | -38.95410 | 174.97549 | 20938 ft | 259 kts | 347° |
| 2026-04-15 11:31 | -38.93606 | 174.97528 | 20935 ft | 259 kts | 347° |
| 2026-04-15 11:31 | -38.91808 | 174.97506 | 20937 ft | 259 kts | 347° |
| 2026-04-15 11:31 | -38.90030 | 174.97487 | 20935 ft | 258 kts | 347° |
| 2026-04-15 11:32 | -38.88235 | 174.97465 | 20944 ft | 258 kts | 347° |
| 2026-04-15 11:32 | -38.86439 | 174.97444 | 20945 ft | 258 kts | 347° |
| 2026-04-15 11:32 | -38.84647 | 174.97423 | 20943 ft | 258 kts | 347° |
| 2026-04-15 11:32 | -38.82955 | 174.97404 | 20947 ft | 258 kts | 347° |
| 2026-04-15 11:33 | -38.81108 | 174.97382 | 20959 ft | 259 kts | 347° |
| 2026-04-15 11:33 | -38.79309 | 174.97360 | 20956 ft | 259 kts | 347° |
| 2026-04-15 11:33 | -38.77513 | 174.97348 | 20945 ft | 256 kts | 347° |
| 2026-04-15 11:33 | -38.75732 | 174.97315 | 20948 ft | 257 kts | 347° |
| 2026-04-15 11:34 | -38.73962 | 174.97322 | 20949 ft | 258 kts | 348° |
| 2026-04-15 11:34 | -38.72175 | 174.97281 | 20947 ft | 256 kts | 346° |
| 2026-04-15 11:34 | -38.70395 | 174.97224 | 20950 ft | 258 kts | 348° |
| 2026-04-15 11:34 | -38.68602 | 174.97246 | 20947 ft | 258 kts | 348° |
| 2026-04-15 11:35 | -38.66817 | 174.97219 | 20948 ft | 255 kts | 346° |
| 2026-04-15 11:35 | -38.65039 | 174.97186 | 20948 ft | 256 kts | 347° |
| 2026-04-15 11:35 | -38.63257 | 174.97174 | 20955 ft | 257 kts | 347° |
| 2026-04-15 11:35 | -38.61468 | 174.97160 | 20956 ft | 257 kts | 347° |
| 2026-04-15 11:36 | -38.59705 | 174.97129 | 20959 ft | 258 kts | 347° |
| 2026-04-15 11:36 | -38.57911 | 174.97116 | 20958 ft | 258 kts | 347° |
| 2026-04-15 11:36 | -38.56112 | 174.97090 | 20958 ft | 258 kts | 347° |
| 2026-04-15 11:36 | -38.54321 | 174.97069 | 20931 ft | 258 kts | 347° |
| 2026-04-15 11:37 | -38.52529 | 174.97053 | 20965 ft | 257 kts | 347° |
| 2026-04-15 11:37 | -38.50737 | 174.97028 | 20957 ft | 257 kts | 347° |
| 2026-04-15 11:37 | -38.48948 | 174.97009 | 20956 ft | 258 kts | 347° |
| 2026-04-15 11:37 | -38.47152 | 174.96990 | 20957 ft | 258 kts | 347° |
| 2026-04-15 11:38 | -38.45353 | 174.96968 | 20960 ft | 258 kts | 347° |
| 2026-04-15 11:38 | -38.43557 | 174.96949 | 20957 ft | 258 kts | 347° |
| 2026-04-15 11:38 | -38.41787 | 174.96928 | 20955 ft | 258 kts | 347° |
| 2026-04-15 11:38 | -38.39988 | 174.96908 | 20959 ft | 258 kts | 347° |
| 2026-04-15 11:39 | -38.38188 | 174.96889 | 20956 ft | 259 kts | 347° |
| 2026-04-15 11:39 | -38.36392 | 174.96867 | 20967 ft | 259 kts | 347° |
| 2026-04-15 11:39 | -38.34594 | 174.96847 | 20964 ft | 259 kts | 347° |
| 2026-04-15 11:39 | -38.32793 | 174.96827 | 20964 ft | 259 kts | 347° |
| 2026-04-15 11:40 | -38.30991 | 174.96808 | 20964 ft | 259 kts | 347° |
| 2026-04-15 11:40 | -38.29191 | 174.96786 | 20965 ft | 258 kts | 347° |
| 2026-04-15 11:40 | -38.27420 | 174.96767 | 20965 ft | 258 kts | 347° |
| 2026-04-15 11:40 | -38.25615 | 174.96747 | 20976 ft | 260 kts | 347° |
| 2026-04-15 11:41 | -38.23794 | 174.96724 | 20968 ft | 263 kts | 347° |
| 2026-04-15 11:41 | -38.21966 | 174.96704 | 20971 ft | 263 kts | 347° |
| 2026-04-15 11:41 | -38.20138 | 174.96678 | 20972 ft | 263 kts | 347° |
| 2026-04-15 11:41 | -38.18309 | 174.96670 | 20978 ft | 263 kts | 348° |
| 2026-04-15 11:42 | -38.16486 | 174.96648 | 20980 ft | 261 kts | 347° |
| 2026-04-15 11:42 | -38.14668 | 174.96616 | 20977 ft | 261 kts | 347° |
| 2026-04-15 11:42 | -38.12848 | 174.96605 | 20976 ft | 262 kts | 348° |
| 2026-04-15 11:42 | -38.11024 | 174.96584 | 20978 ft | 262 kts | 347° |
| 2026-04-15 11:43 | -38.09219 | 174.96563 | 20978 ft | 263 kts | 347° |
| 2026-04-15 11:43 | -38.07392 | 174.96544 | 20966 ft | 262 kts | 348° |
| 2026-04-15 11:43 | -38.05564 | 174.96527 | 20966 ft | 262 kts | 347° |
| 2026-04-15 11:43 | -38.03742 | 174.96503 | 20968 ft | 263 kts | 348° |
| 2026-04-15 11:44 | -38.01919 | 174.96482 | 20971 ft | 262 kts | 348° |
| 2026-04-15 11:44 | -38.00095 | 174.96458 | 20968 ft | 262 kts | 348° |
| 2026-04-15 11:44 | -37.98268 | 174.96445 | 20971 ft | 263 kts | 348° |
| 2026-04-15 11:44 | -37.96465 | 174.96424 | 20974 ft | 263 kts | 348° |
| 2026-04-15 11:45 | -37.94633 | 174.96403 | 20970 ft | 263 kts | 348° |
| 2026-04-15 11:45 | -37.92805 | 174.96382 | 20967 ft | 263 kts | 348° |
| 2026-04-15 11:45 | -37.90979 | 174.96365 | 20968 ft | 261 kts | 347° |
| 2026-04-15 11:45 | -37.89159 | 174.96345 | 20975 ft | 262 kts | 348° |
| 2026-04-15 11:46 | -37.87343 | 174.96329 | 20978 ft | 261 kts | 348° |
| 2026-04-15 11:46 | -37.85509 | 174.96303 | 20980 ft | 265 kts | 348° |
| 2026-04-15 11:46 | -37.83672 | 174.96289 | 20974 ft | 262 kts | 348° |
| 2026-04-15 11:46 | -37.81851 | 174.96267 | 20975 ft | 262 kts | 348° |
| 2026-04-15 11:47 | -37.80035 | 174.96247 | 20975 ft | 261 kts | 348° |
| 2026-04-15 11:47 | -37.78246 | 174.96229 | 20977 ft | 260 kts | 348° |
| 2026-04-15 11:47 | -37.76439 | 174.96209 | 20977 ft | 259 kts | 348° |
| 2026-04-15 11:47 | -37.74638 | 174.96190 | 20976 ft | 259 kts | 348° |
| 2026-04-15 11:48 | -37.72834 | 174.96170 | 20975 ft | 259 kts | 348° |
| 2026-04-15 11:48 | -37.71031 | 174.96152 | 20975 ft | 259 kts | 347° |
| 2026-04-15 11:48 | -37.69238 | 174.96133 | 20983 ft | 258 kts | 348° |
| 2026-04-15 11:48 | -37.67439 | 174.96111 | 20980 ft | 258 kts | 348° |
| 2026-04-15 11:49 | -37.65647 | 174.96091 | 20981 ft | 257 kts | 348° |
| 2026-04-15 11:49 | -37.63875 | 174.96077 | 20979 ft | 258 kts | 348° |
| 2026-04-15 11:49 | -37.62064 | 174.96052 | 20787 ft | 264 kts | 348° |
| 2026-04-15 11:49 | -37.60200 | 174.96031 | 20459 ft | 269 kts | 349° |
| 2026-04-15 11:50 | -37.58332 | 174.96022 | 20142 ft | 269 kts | 348° |
| 2026-04-15 11:50 | -37.56471 | 174.95961 | 19827 ft | 265 kts | 346° |
| 2026-04-15 11:50 | -37.54648 | 174.95759 | 19516 ft | 263 kts | 343° |
| 2026-04-15 11:50 | -37.52820 | 174.95569 | 19208 ft | 265 kts | 346° |
| 2026-04-15 11:51 | -37.50980 | 174.95446 | 18903 ft | 264 kts | 346° |
| 2026-04-15 11:51 | -37.49176 | 174.95278 | 18602 ft | 263 kts | 345° |
| 2026-04-15 11:51 | -37.47355 | 174.95112 | 18305 ft | 264 kts | 346° |
| 2026-04-15 11:51 | -37.45519 | 174.94967 | 17979 ft | 264 kts | 346° |
| 2026-04-15 11:52 | -37.43693 | 174.94804 | 17635 ft | 263 kts | 346° |
| 2026-04-15 11:52 | -37.41864 | 174.94647 | 17289 ft | 262 kts | 346° |
| 2026-04-15 11:52 | -37.40002 | 174.94824 | 16961 ft | 280 kts | 4° |
| 2026-04-15 11:52 | -37.38139 | 174.95605 | 16626 ft | 283 kts | 9° |
| 2026-04-15 11:53 | -37.36274 | 174.96275 | 16277 ft | 276 kts | 3° |
| 2026-04-15 11:53 | -37.34381 | 174.96741 | 15952 ft | 277 kts | 1° |
| 2026-04-15 11:53 | -37.32493 | 174.97238 | 15634 ft | 279 kts | 4° |
| 2026-04-15 11:53 | -37.30624 | 174.97837 | 15324 ft | 282 kts | 5° |
| 2026-04-15 11:54 | -37.28712 | 174.98388 | 14832 ft | 286 kts | 3° |
| 2026-04-15 11:54 | -37.26758 | 174.98930 | 14240 ft | 289 kts | 4° |
| 2026-04-15 11:54 | -37.24804 | 174.99524 | 13651 ft | 289 kts | 5° |
| 2026-04-15 11:54 | -37.22847 | 175.00091 | 13001 ft | 287 kts | 4° |
| 2026-04-15 11:55 | -37.20913 | 175.00643 | 12365 ft | 285 kts | 5° |
| 2026-04-15 11:55 | -37.18988 | 175.01215 | 11732 ft | 283 kts | 5° |
| 2026-04-15 11:55 | -37.17100 | 175.01760 | 11130 ft | 280 kts | 5° |
| 2026-04-15 11:55 | -37.15208 | 175.02310 | 10527 ft | 279 kts | 5° |
| 2026-04-15 11:56 | -37.13327 | 175.02854 | 9933 ft | 276 kts | 5° |
| 2026-04-15 11:56 | -37.11530 | 175.03707 | 9270 ft | 284 kts | 27° |
| 2026-04-15 11:56 | -37.10156 | 175.05498 | 8618 ft | 289 kts | 56° |
| 2026-04-15 11:56 | -37.09535 | 175.07851 | 7983 ft | 288 kts | 85° |
| 2026-04-15 11:57 | -37.09784 | 175.10302 | 7349 ft | 279 kts | 114° |
| 2026-04-15 11:57 | -37.12330 | 175.13150 | 6711 ft | 235 kts | 177° |
| 2026-04-15 11:57 | -37.13870 | 175.12965 | 6478 ft | 217 kts | 210° |
| 2026-04-15 11:58 | -37.14969 | 175.11810 | 6237 ft | 203 kts | 240° |
| 2026-04-15 11:58 | -37.15530 | 175.10220 | 5978 ft | 198 kts | 253° |
| 2026-04-15 11:58 | -37.16047 | 175.08606 | 5721 ft | 201 kts | 248° |
| 2026-04-15 11:58 | -37.16627 | 175.07018 | 5468 ft | 200 kts | 248° |
| 2026-04-15 11:59 | -37.16796 | 175.05325 | 5210 ft | 200 kts | 280° |
| 2026-04-15 11:59 | -37.16067 | 175.03846 | 4966 ft | 210 kts | 314° |
| 2026-04-15 11:59 | -37.14684 | 175.03142 | 4708 ft | 225 kts | 347° |
| 2026-04-15 11:59 | -37.13159 | 175.02995 | 4460 ft | 221 kts | 347° |
| 2026-04-15 12:00 | -37.11593 | 175.03328 | 4185 ft | 238 kts | 13° |
| 2026-04-15 12:00 | -37.10061 | 175.04101 | 3935 ft | 236 kts | 14° |
| 2026-04-15 12:00 | -37.08541 | 175.04765 | 3768 ft | 227 kts | 9° |
| 2026-04-15 12:00 | -37.07030 | 175.05298 | 3588 ft | 224 kts | 9° |
| 2026-04-15 12:01 | -37.05539 | 175.05900 | 3420 ft | 224 kts | 11° |
| 2026-04-15 12:01 | -37.04046 | 175.06492 | 3237 ft | 220 kts | 10° |
| 2026-04-15 12:01 | -37.02736 | 175.07024 | 3050 ft | 180 kts | 8° |
| 2026-04-15 12:01 | -37.01587 | 175.07229 | 2937 ft | 155 kts | 336° |
| 2026-04-15 12:02 | -37.00668 | 175.06696 | 2896 ft | 145 kts | 326° |
| 2026-04-15 12:02 | -36.99745 | 175.06252 | 2865 ft | 142 kts | 329° |
| 2026-04-15 12:02 | -36.98819 | 175.05841 | 2860 ft | 141 kts | 330° |
| 2026-04-15 12:02 | -36.97904 | 175.05446 | 2865 ft | 140 kts | 329° |
| 2026-04-15 12:03 | -36.96988 | 175.05050 | 2869 ft | 138 kts | 329° |
| 2026-04-15 12:03 | -36.96102 | 175.04666 | 2969 ft | 132 kts | 330° |
| 2026-04-15 12:03 | -36.95283 | 175.04243 | 3008 ft | 123 kts | 309° |
| 2026-04-15 12:03 | -36.94803 | 175.03408 | 2999 ft | 113 kts | 284° |
| 2026-04-15 12:04 | -36.94760 | 175.02462 | 3014 ft | 112 kts | 256° |
| 2026-04-15 12:04 | -36.94962 | 175.01505 | 2997 ft | 115 kts | 257° |
| 2026-04-15 12:04 | -36.95207 | 175.00493 | 3050 ft | 131 kts | 255° |
| 2026-04-15 12:04 | -36.95464 | 174.99383 | 3098 ft | 127 kts | 257° |
| 2026-04-15 12:05 | -36.95671 | 174.98352 | 3047 ft | 120 kts | 258° |
| 2026-04-15 12:05 | -36.95851 | 174.97347 | 3030 ft | 119 kts | 253° |
| 2026-04-15 12:05 | -36.96277 | 174.96462 | 3027 ft | 116 kts | 251° |
| 2026-04-15 12:05 | -36.96526 | 174.95504 | 3000 ft | 117 kts | 254° |
| 2026-04-15 12:06 | -36.96812 | 174.94507 | 2742 ft | 128 kts | 254° |
| 2026-04-15 12:06 | -36.97111 | 174.93398 | 2244 ft | 138 kts | 253° |
| 2026-04-15 12:06 | -36.97440 | 174.92295 | 1957 ft | 134 kts | 254° |
| 2026-04-15 12:06 | -36.97730 | 174.91208 | 1774 ft | 136 kts | 253° |
| 2026-04-15 12:07 | -36.98048 | 174.90080 | 1592 ft | 135 kts | 254° |
| 2026-04-15 12:07 | -36.98336 | 174.89032 | 1417 ft | 122 kts | 254° |
| 2026-04-15 12:07 | -36.98596 | 174.88087 | 1254 ft | 102 kts | 257° |
| 2026-04-15 12:07 | -36.98816 | 174.87283 | 1119 ft | 97 kts | 255° |
| 2026-04-15 12:08 | -36.99033 | 174.86493 | 992 ft | 99 kts | 253° |
| 2026-04-15 12:08 | -36.99267 | 174.85663 | 864 ft | 108 kts | 253° |
| 2026-04-15 12:08 | -36.99531 | 174.84716 | 718 ft | 122 kts | 252° |
| 2026-04-15 12:08 | -36.99813 | 174.83701 | 558 ft | 126 kts | 252° |
| 2026-04-15 12:09 | -37.00092 | 174.82665 | 406 ft | 125 kts | 255° |
| 2026-04-15 12:09 | -37.00340 | 174.81733 | 237 ft | 105 kts | 257° |
| 2026-04-15 12:09 | -37.00590 | 174.80844 | 112 ft | 110 kts | 255° |
| 2026-04-15 12:09 | -37.00828 | 174.79990 | 22 ft | 93 kts | 255° |
| 2026-04-15 12:10 | -37.00991 | 174.79383 | 21 ft | 48 kts | 251° |
| 2026-04-15 12:10 | -37.01067 | 174.79076 | 23 ft | 31 kts | 271° |
| 2026-04-15 12:10 | -37.01062 | 174.78898 | 21 ft | 24 kts | 281° |
| 2026-04-15 12:10 | -37.01038 | 174.78755 | 21 ft | 7 kts | 295° |
| 2026-04-15 12:11 | -37.00974 | 174.78761 | 22 ft | 15 kts | 56° |
| 2026-04-15 12:11 | -37.00943 | 174.78877 | 21 ft | 20 kts | 71° |
| 2026-04-15 12:11 | -37.00893 | 174.79066 | 22 ft | 27 kts | 76° |
| 2026-04-15 12:11 | -37.00855 | 174.79196 | 21 ft | 4 kts | 72° |
| 2026-04-15 12:12 | -37.00828 | 174.79293 | 21 ft | 9 kts | 69° |
| 2026-04-15 12:12 | -37.00768 | 174.79325 | 22 ft | 9 kts | 342° |
| 2026-04-15 12:12 | -37.00717 | 174.79302 | 21 ft | 4 kts | 337° |
| 2026-04-15 12:12 | -37.00704 | 174.79296 | 23 ft | 0 kts | 350° |
| 2026-04-15 12:13 | -37.00687 | 174.79313 | 22 ft | 8 kts | 44° |
| 2026-04-15 12:13 | -37.00651 | 174.79316 | 21 ft | 3 kts | 302° |
| 2026-04-15 12:13 | -37.00642 | 174.79296 | 23 ft | 2 kts | 302° |
| 2026-04-15 12:13 | -37.00634 | 174.79283 | 21 ft | 1 kts | 304° |
| 2026-04-15 12:14 | -37.00632 | 174.79278 | 21 ft | 0 kts | 304° |
| 2026-04-15 12:32 | -37.00633 | 174.79279 | 21 ft | 0 kts | 305° |